Terminal Aerodrome Forecast
Issued by NWS Grand Forks, ND

Home | Current Version | Previous Version | Graphics & Text | Print | Product List | Glossary On
Versions: 1 2 3 4 5 6 7 8 9 10 11 12
266
FTUS43 KFGF 231727
TAFFAR
TAF
KFAR 231727Z 2318/2418 35007KT P6SM SCT120
     FM240500 36010KT P6SM BKN060
     FM241600 36012G18KT P6SM FEW250=

USA.gov is the U.S. government's official web portal to all federal, state and local government web resources and services.